sensor_id;sensor_type;location;lat;lon;timestamp;temperature;humidity
7216;DHT22;3649;48.798;9.798;2023-04-15T00:01:14;11.10;99.90
7216;DHT22;3649;48.798;9.798;2023-04-15T00:03:45;11.00;99.90
7216;DHT22;3649;48.798;9.798;2023-04-15T00:06:14;11.10;99.90
7216;DHT22;3649;48.798;9.798;2023-04-15T00:08:41;11.10;99.90
7216;DHT22;3649;48.798;9.798;2023-04-15T00:11:09;11.00;99.90
7216;DHT22;3649;48.798;9.798;2023-04-15T00:13:36;11.00;99.90
7216;DHT22;3649;48.798;9.798;2023-04-15T00:16:04;11.00;99.90
7216;DHT22;3649;48.798;9.798;2023-04-15T00:18:31;11.00;99.90
7216;DHT22;3649;48.798;9.798;2023-04-15T00:20:58;11.10;99.90
7216;DHT22;3649;48.798;9.798;2023-04-15T00:23:27;11.10;99.90
7216;DHT22;3649;48.798;9.798;2023-04-15T00:25:54;11.00;99.90
7216;DHT22;3649;48.798;9.798;2023-04-15T00:28:21;11.10;99.90
7216;DHT22;3649;48.798;9.798;2023-04-15T00:30:48;11.10;99.90
7216;DHT22;3649;48.798;9.798;2023-04-15T00:33:15;11.00;99.90
7216;DHT22;3649;48.798;9.798;2023-04-15T00:35:43;11.00;99.90
7216;DHT22;3649;48.798;9.798;2023-04-15T00:38:10;11.00;99.90
7216;DHT22;3649;48.798;9.798;2023-04-15T00:40:37;10.90;99.90
7216;DHT22;3649;48.798;9.798;2023-04-15T00:43:04;10.90;99.90
7216;DHT22;3649;48.798;9.798;2023-04-15T00:45:31;10.90;99.90
7216;DHT22;3649;48.798;9.798;2023-04-15T00:47:59;10.90;99.90
7216;DHT22;3649;48.798;9.798;2023-04-15T00:50:26;10.90;99.90
7216;DHT22;3649;48.798;9.798;2023-04-15T00:52:52;10.90;99.90
7216;DHT22;3649;48.798;9.798;2023-04-15T00:55:20;11.00;99.90
7216;DHT22;3649;48.798;9.798;2023-04-15T00:57:47;10.90;99.90
7216;DHT22;3649;48.798;9.798;2023-04-15T01:00:14;10.90;99.90
7216;DHT22;3649;48.798;9.798;2023-04-15T01:02:42;10.80;99.90
7216;DHT22;3649;48.798;9.798;2023-04-15T01:05:09;10.70;99.90
7216;DHT22;3649;48.798;9.798;2023-04-15T01:07:36;10.70;99.90
7216;DHT22;3649;48.798;9.798;2023-04-15T01:10:03;10.60;99.90
7216;DHT22;3649;48.798;9.798;2023-04-15T01:12:31;10.70;99.90
7216;DHT22;3649;48.798;9.798;2023-04-15T01:14:59;10.70;99.90
7216;DHT22;3649;48.798;9.798;2023-04-15T01:17:27;10.70;99.90
7216;DHT22;3649;48.798;9.798;2023-04-15T01:19:55;10.60;99.90
7216;DHT22;3649;48.798;9.798;2023-04-15T01:22:26;10.70;99.90
7216;DHT22;3649;48.798;9.798;2023-04-15T01:25:09;10.70;99.90
7216;DHT22;3649;48.798;9.798;2023-04-15T01:27:38;10.70;99.90
7216;DHT22;3649;48.798;9.798;2023-04-15T01:30:07;10.70;99.90
7216;DHT22;3649;48.798;9.798;2023-04-15T01:32:34;10.60;99.90
7216;DHT22;3649;48.798;9.798;2023-04-15T01:35:01;10.70;99.90
7216;DHT22;3649;48.798;9.798;2023-04-15T01:37:29;10.70;99.90
7216;DHT22;3649;48.798;9.798;2023-04-15T01:39:56;10.60;99.90
7216;DHT22;3649;48.798;9.798;2023-04-15T01:42:23;10.60;99.90
7216;DHT22;3649;48.798;9.798;2023-04-15T01:44:50;10.50;99.90
7216;DHT22;3649;48.798;9.798;2023-04-15T01:47:17;10.60;99.90
7216;DHT22;3649;48.798;9.798;2023-04-15T01:49:44;10.50;99.90
7216;DHT22;3649;48.798;9.798;2023-04-15T01:52:11;10.50;99.90
7216;DHT22;3649;48.798;9.798;2023-04-15T01:54:38;10.50;99.90
7216;DHT22;3649;48.798;9.798;2023-04-15T01:57:05;10.60;99.90
7216;DHT22;3649;48.798;9.798;2023-04-15T01:59:32;10.40;99.90
7216;DHT22;3649;48.798;9.798;2023-04-15T02:01:59;10.60;99.90
7216;DHT22;3649;48.798;9.798;2023-04-15T02:04:26;10.50;99.90
7216;DHT22;3649;48.798;9.798;2023-04-15T02:06:53;10.40;99.90
7216;DHT22;3649;48.798;9.798;2023-04-15T02:09:20;10.40;99.90
7216;DHT22;3649;48.798;9.798;2023-04-15T02:11:47;10.40;99.90
7216;DHT22;3649;48.798;9.798;2023-04-15T02:14:14;10.40;99.90
7216;DHT22;3649;48.798;9.798;2023-04-15T02:16:41;10.50;99.90
7216;DHT22;3649;48.798;9.798;2023-04-15T02:19:07;10.30;99.90
7216;DHT22;3649;48.798;9.798;2023-04-15T02:21:35;10.40;99.90
7216;DHT22;3649;48.798;9.798;2023-04-15T02:24:02;10.30;99.90
7216;DHT22;3649;48.798;9.798;2023-04-15T02:26:30;10.30;99.90
7216;DHT22;3649;48.798;9.798;2023-04-15T02:28:59;10.30;99.90
7216;DHT22;3649;48.798;9.798;2023-04-15T02:31:26;10.30;99.90
7216;DHT22;3649;48.798;9.798;2023-04-15T02:33:53;10.30;99.90
7216;DHT22;3649;48.798;9.798;2023-04-15T02:36:20;8.90;99.90
7216;DHT22;3649;48.798;9.798;2023-04-15T02:38:47;10.30;99.90
7216;DHT22;3649;48.798;9.798;2023-04-15T02:41:14;10.20;99.90
7216;DHT22;3649;48.798;9.798;2023-04-15T02:43:41;10.20;99.90
7216;DHT22;3649;48.798;9.798;2023-04-15T02:46:07;10.30;99.90
7216;DHT22;3649;48.798;9.798;2023-04-15T02:48:38;10.30;99.90
7216;DHT22;3649;48.798;9.798;2023-04-15T02:51:12;10.30;99.90
7216;DHT22;3649;48.798;9.798;2023-04-15T02:53:39;10.20;99.90
7216;DHT22;3649;48.798;9.798;2023-04-15T02:56:07;10.20;99.90
7216;DHT22;3649;48.798;9.798;2023-04-15T02:58:34;10.30;99.90
7216;DHT22;3649;48.798;9.798;2023-04-15T03:01:01;10.10;99.90
7216;DHT22;3649;48.798;9.798;2023-04-15T03:03:28;10.10;99.90
7216;DHT22;3649;48.798;9.798;2023-04-15T03:05:55;10.10;99.90
7216;DHT22;3649;48.798;9.798;2023-04-15T03:08:22;10.10;99.90
7216;DHT22;3649;48.798;9.798;2023-04-15T03:10:49;10.10;99.90
7216;DHT22;3649;48.798;9.798;2023-04-15T03:13:18;10.40;99.90
7216;DHT22;3649;48.798;9.798;2023-04-15T03:15:48;10.00;99.90
7216;DHT22;3649;48.798;9.798;2023-04-15T03:18:14;10.00;99.90
7216;DHT22;3649;48.798;9.798;2023-04-15T03:20:42;10.00;99.90
7216;DHT22;3649;48.798;9.798;2023-04-15T03:23:09;9.90;99.90
7216;DHT22;3649;48.798;9.798;2023-04-15T03:25:35;10.00;99.90
7216;DHT22;3649;48.798;9.798;2023-04-15T03:28:03;10.00;99.90
7216;DHT22;3649;48.798;9.798;2023-04-15T03:30:30;10.00;99.90
7216;DHT22;3649;48.798;9.798;2023-04-15T03:32:57;10.00;99.90
7216;DHT22;3649;48.798;9.798;2023-04-15T03:35:24;9.90;99.90
7216;DHT22;3649;48.798;9.798;2023-04-15T03:37:51;9.90;99.90
7216;DHT22;3649;48.798;9.798;2023-04-15T03:40:19;9.90;99.90
7216;DHT22;3649;48.798;9.798;2023-04-15T03:42:46;9.90;99.90
7216;DHT22;3649;48.798;9.798;2023-04-15T03:45:13;9.90;99.90
7216;DHT22;3649;48.798;9.798;2023-04-15T03:47:40;9.80;99.90
7216;DHT22;3649;48.798;9.798;2023-04-15T03:50:07;9.70;99.90
7216;DHT22;3649;48.798;9.798;2023-04-15T03:52:34;9.70;99.90
7216;DHT22;3649;48.798;9.798;2023-04-15T03:55:01;9.70;99.90
7216;DHT22;3649;48.798;9.798;2023-04-15T03:57:28;9.70;99.90
7216;DHT22;3649;48.798;9.798;2023-04-15T03:59:55;9.70;99.90
7216;DHT22;3649;48.798;9.798;2023-04-15T04:02:21;9.60;99.90
7216;DHT22;3649;48.798;9.798;2023-04-15T04:04:49;9.60;99.90
7216;DHT22;3649;48.798;9.798;2023-04-15T04:07:17;9.70;99.90
7216;DHT22;3649;48.798;9.798;2023-04-15T04:09:44;10.00;99.90
7216;DHT22;3649;48.798;9.798;2023-04-15T04:12:13;9.70;99.90
7216;DHT22;3649;48.798;9.798;2023-04-15T04:14:39;9.70;99.90
7216;DHT22;3649;48.798;9.798;2023-04-15T04:17:06;9.70;99.90
7216;DHT22;3649;48.798;9.798;2023-04-15T04:19:34;9.80;99.90
7216;DHT22;3649;48.798;9.798;2023-04-15T04:22:01;9.80;99.90
7216;DHT22;3649;48.798;9.798;2023-04-15T04:24:28;9.80;99.90
7216;DHT22;3649;48.798;9.798;2023-04-15T04:26:55;9.90;99.90
7216;DHT22;3649;48.798;9.798;2023-04-15T04:29:23;10.00;99.90
7216;DHT22;3649;48.798;9.798;2023-04-15T04:31:50;9.90;99.90
7216;DHT22;3649;48.798;9.798;2023-04-15T04:34:17;9.80;99.90
7216;DHT22;3649;48.798;9.798;2023-04-15T04:36:44;9.80;99.90
7216;DHT22;3649;48.798;9.798;2023-04-15T04:39:12;9.80;99.90
7216;DHT22;3649;48.798;9.798;2023-04-15T04:41:39;9.80;99.90
7216;DHT22;3649;48.798;9.798;2023-04-15T04:44:06;9.70;99.90
7216;DHT22;3649;48.798;9.798;2023-04-15T04:46:32;9.70;99.90
7216;DHT22;3649;48.798;9.798;2023-04-15T04:48:59;9.70;99.90
7216;DHT22;3649;48.798;9.798;2023-04-15T04:51:26;9.80;99.90
7216;DHT22;3649;48.798;9.798;2023-04-15T04:53:53;10.00;99.90
7216;DHT22;3649;48.798;9.798;2023-04-15T04:56:20;9.80;99.90
7216;DHT22;3649;48.798;9.798;2023-04-15T04:58:47;9.80;99.90
7216;DHT22;3649;48.798;9.798;2023-04-15T05:01:14;9.80;99.90
7216;DHT22;3649;48.798;9.798;2023-04-15T05:03:41;9.90;99.90
7216;DHT22;3649;48.798;9.798;2023-04-15T05:06:08;9.90;99.90
7216;DHT22;3649;48.798;9.798;2023-04-15T05:08:35;9.70;99.90
7216;DHT22;3649;48.798;9.798;2023-04-15T05:11:03;9.70;99.90
7216;DHT22;3649;48.798;9.798;2023-04-15T05:13:30;9.70;99.90
7216;DHT22;3649;48.798;9.798;2023-04-15T05:15:57;9.70;99.90
7216;DHT22;3649;48.798;9.798;2023-04-15T05:18:24;9.70;99.90
7216;DHT22;3649;48.798;9.798;2023-04-15T05:20:51;9.70;99.90
7216;DHT22;3649;48.798;9.798;2023-04-15T05:23:18;9.80;99.90
7216;DHT22;3649;48.798;9.798;2023-04-15T05:25:45;10.10;99.90
7216;DHT22;3649;48.798;9.798;2023-04-15T05:28:12;9.80;99.90
7216;DHT22;3649;48.798;9.798;2023-04-15T05:30:39;10.80;99.90
7216;DHT22;3649;48.798;9.798;2023-04-15T05:33:06;9.80;99.90
7216;DHT22;3649;48.798;9.798;2023-04-15T05:35:33;9.80;99.90
7216;DHT22;3649;48.798;9.798;2023-04-15T05:37:59;9.70;99.90
7216;DHT22;3649;48.798;9.798;2023-04-15T05:40:26;9.70;99.90
7216;DHT22;3649;48.798;9.798;2023-04-15T05:42:53;9.70;99.90
7216;DHT22;3649;48.798;9.798;2023-04-15T05:45:20;9.70;99.90
7216;DHT22;3649;48.798;9.798;2023-04-15T05:47:47;10.60;99.90
7216;DHT22;3649;48.798;9.798;2023-04-15T05:50:16;9.70;99.90
7216;DHT22;3649;48.798;9.798;2023-04-15T05:52:43;9.70;99.90
7216;DHT22;3649;48.798;9.798;2023-04-15T05:55:11;9.80;99.90
7216;DHT22;3649;48.798;9.798;2023-04-15T05:57:38;10.40;99.90
7216;DHT22;3649;48.798;9.798;2023-04-15T06:00:05;10.00;99.90
7216;DHT22;3649;48.798;9.798;2023-04-15T06:02:32;10.00;99.90
7216;DHT22;3649;48.798;9.798;2023-04-15T06:04:59;10.00;99.90
7216;DHT22;3649;48.798;9.798;2023-04-15T06:07:26;10.20;99.90
7216;DHT22;3649;48.798;9.798;2023-04-15T06:09:53;9.90;99.90
7216;DHT22;3649;48.798;9.798;2023-04-15T06:12:20;9.90;99.90
7216;DHT22;3649;48.798;9.798;2023-04-15T06:14:47;9.90;99.90
7216;DHT22;3649;48.798;9.798;2023-04-15T06:17:14;10.20;99.90
7216;DHT22;3649;48.798;9.798;2023-04-15T06:19:43;10.00;99.90
7216;DHT22;3649;48.798;9.798;2023-04-15T06:22:10;10.10;99.90
7216;DHT22;3649;48.798;9.798;2023-04-15T06:24:37;10.30;99.90
7216;DHT22;3649;48.798;9.798;2023-04-15T06:27:04;10.10;99.90
7216;DHT22;3649;48.798;9.798;2023-04-15T06:29:31;10.20;99.90
7216;DHT22;3649;48.798;9.798;2023-04-15T06:31:57;10.20;99.90
7216;DHT22;3649;48.798;9.798;2023-04-15T06:34:24;10.20;99.90
7216;DHT22;3649;48.798;9.798;2023-04-15T06:36:51;10.30;99.90
7216;DHT22;3649;48.798;9.798;2023-04-15T06:39:20;10.40;99.90
7216;DHT22;3649;48.798;9.798;2023-04-15T06:41:46;10.50;99.90
7216;DHT22;3649;48.798;9.798;2023-04-15T06:44:14;10.50;99.90
7216;DHT22;3649;48.798;9.798;2023-04-15T06:46:41;10.50;99.90
7216;DHT22;3649;48.798;9.798;2023-04-15T06:49:08;10.50;99.90
7216;DHT22;3649;48.798;9.798;2023-04-15T06:51:35;10.60;99.90
7216;DHT22;3649;48.798;9.798;2023-04-15T06:54:03;10.80;99.90
7216;DHT22;3649;48.798;9.798;2023-04-15T06:56:32;10.80;99.90
7216;DHT22;3649;48.798;9.798;2023-04-15T06:58:59;10.80;99.90
7216;DHT22;3649;48.798;9.798;2023-04-15T07:01:26;10.90;99.90
7216;DHT22;3649;48.798;9.798;2023-04-15T07:03:53;11.00;99.90
7216;DHT22;3649;48.798;9.798;2023-04-15T07:06:20;11.10;99.90
7216;DHT22;3649;48.798;9.798;2023-04-15T07:08:47;11.20;99.90
7216;DHT22;3649;48.798;9.798;2023-04-15T07:11:14;11.20;99.90
7216;DHT22;3649;48.798;9.798;2023-04-15T07:13:42;11.30;99.90
7216;DHT22;3649;48.798;9.798;2023-04-15T07:16:09;11.30;99.90
7216;DHT22;3649;48.798;9.798;2023-04-15T07:18:36;11.40;99.90
7216;DHT22;3649;48.798;9.798;2023-04-15T07:21:03;11.40;99.90
7216;DHT22;3649;48.798;9.798;2023-04-15T07:23:30;11.60;99.90
7216;DHT22;3649;48.798;9.798;2023-04-15T07:25:57;11.70;99.90
7216;DHT22;3649;48.798;9.798;2023-04-15T07:28:24;11.80;99.90
7216;DHT22;3649;48.798;9.798;2023-04-15T07:30:51;12.00;99.90
7216;DHT22;3649;48.798;9.798;2023-04-15T07:33:17;12.00;99.90
7216;DHT22;3649;48.798;9.798;2023-04-15T07:35:44;12.10;99.90
7216;DHT22;3649;48.798;9.798;2023-04-15T07:38:12;12.10;99.90
7216;DHT22;3649;48.798;9.798;2023-04-15T07:40:39;12.20;99.90
7216;DHT22;3649;48.798;9.798;2023-04-15T07:43:06;12.30;99.90
7216;DHT22;3649;48.798;9.798;2023-04-15T07:45:33;12.40;99.90
7216;DHT22;3649;48.798;9.798;2023-04-15T07:48:00;12.50;99.90
7216;DHT22;3649;48.798;9.798;2023-04-15T07:50:28;12.50;99.90
7216;DHT22;3649;48.798;9.798;2023-04-15T07:52:54;12.60;99.90
7216;DHT22;3649;48.798;9.798;2023-04-15T07:55:21;12.60;99.90
7216;DHT22;3649;48.798;9.798;2023-04-15T07:57:49;12.60;99.90
7216;DHT22;3649;48.798;9.798;2023-04-15T08:00:16;12.70;99.90
7216;DHT22;3649;48.798;9.798;2023-04-15T08:02:43;12.70;99.90
7216;DHT22;3649;48.798;9.798;2023-04-15T08:05:12;12.70;99.90
7216;DHT22;3649;48.798;9.798;2023-04-15T08:07:40;12.80;99.90
7216;DHT22;3649;48.798;9.798;2023-04-15T08:10:07;12.80;99.90
7216;DHT22;3649;48.798;9.798;2023-04-15T08:12:34;12.80;99.90
7216;DHT22;3649;48.798;9.798;2023-04-15T08:15:02;12.80;99.90
7216;DHT22;3649;48.798;9.798;2023-04-15T08:17:29;13.00;99.90
7216;DHT22;3649;48.798;9.798;2023-04-15T08:19:55;13.10;99.90
7216;DHT22;3649;48.798;9.798;2023-04-15T08:22:22;13.20;99.90
7216;DHT22;3649;48.798;9.798;2023-04-15T08:24:49;13.20;99.90
7216;DHT22;3649;48.798;9.798;2023-04-15T08:27:16;13.20;99.90
7216;DHT22;3649;48.798;9.798;2023-04-15T08:29:43;13.30;99.90
7216;DHT22;3649;48.798;9.798;2023-04-15T08:32:11;13.30;99.90
7216;DHT22;3649;48.798;9.798;2023-04-15T08:34:38;13.40;99.90
7216;DHT22;3649;48.798;9.798;2023-04-15T08:37:05;13.50;99.90
7216;DHT22;3649;48.798;9.798;2023-04-15T08:39:32;13.50;99.90
7216;DHT22;3649;48.798;9.798;2023-04-15T08:42:03;13.50;99.90
7216;DHT22;3649;48.798;9.798;2023-04-15T08:44:34;13.50;99.90
7216;DHT22;3649;48.798;9.798;2023-04-15T08:47:07;13.70;99.90
7216;DHT22;3649;48.798;9.798;2023-04-15T08:49:39;13.70;99.90
7216;DHT22;3649;48.798;9.798;2023-04-15T08:52:06;13.80;99.90
7216;DHT22;3649;48.798;9.798;2023-04-15T08:54:35;13.90;99.90
7216;DHT22;3649;48.798;9.798;2023-04-15T08:57:03;13.90;99.90
7216;DHT22;3649;48.798;9.798;2023-04-15T08:59:30;14.00;99.90
7216;DHT22;3649;48.798;9.798;2023-04-15T09:01:57;14.00;99.90
7216;DHT22;3649;48.798;9.798;2023-04-15T09:04:24;14.10;99.90
7216;DHT22;3649;48.798;9.798;2023-04-15T09:06:51;14.20;99.90
7216;DHT22;3649;48.798;9.798;2023-04-15T09:09:18;14.20;99.90
7216;DHT22;3649;48.798;9.798;2023-04-15T09:11:45;14.40;99.90
7216;DHT22;3649;48.798;9.798;2023-04-15T09:14:12;14.30;99.90
7216;DHT22;3649;48.798;9.798;2023-04-15T09:19:25;14.40;99.90
7216;DHT22;3649;48.798;9.798;2023-04-15T09:21:53;14.40;99.90
7216;DHT22;3649;48.798;9.798;2023-04-15T09:24:24;14.50;99.90
7216;DHT22;3649;48.798;9.798;2023-04-15T09:26:53;14.50;99.90
7216;DHT22;3649;48.798;9.798;2023-04-15T09:29:23;14.60;99.90
7216;DHT22;3649;48.798;9.798;2023-04-15T09:31:50;14.60;99.90
7216;DHT22;3649;48.798;9.798;2023-04-15T09:34:18;14.60;99.90
7216;DHT22;3649;48.798;9.798;2023-04-15T09:39:13;14.70;99.90
7216;DHT22;3649;48.798;9.798;2023-04-15T09:41:40;14.70;99.90
7216;DHT22;3649;48.798;9.798;2023-04-15T09:44:24;14.70;99.90
7216;DHT22;3649;48.798;9.798;2023-04-15T09:46:51;14.80;99.90
7216;DHT22;3649;48.798;9.798;2023-04-15T09:49:18;14.90;99.80
7216;DHT22;3649;48.798;9.798;2023-04-15T09:51:46;14.80;99.90
7216;DHT22;3649;48.798;9.798;2023-04-15T09:54:35;14.80;99.80
7216;DHT22;3649;48.798;9.798;2023-04-15T09:57:08;14.80;99.40
7216;DHT22;3649;48.798;9.798;2023-04-15T09:59:38;14.80;99.30
7216;DHT22;3649;48.798;9.798;2023-04-15T10:02:06;14.80;98.90
7216;DHT22;3649;48.798;9.798;2023-04-15T10:04:35;14.90;98.70
7216;DHT22;3649;48.798;9.798;2023-04-15T10:07:04;14.90;98.50
7216;DHT22;3649;48.798;9.798;2023-04-15T10:09:31;14.90;98.30
7216;DHT22;3649;48.798;9.798;2023-04-15T10:12:00;14.80;98.50
7216;DHT22;3649;48.798;9.798;2023-04-15T10:14:30;14.90;98.70
7216;DHT22;3649;48.798;9.798;2023-04-15T10:17:00;15.00;98.50
7216;DHT22;3649;48.798;9.798;2023-04-15T10:19:30;15.00;98.60
7216;DHT22;3649;48.798;9.798;2023-04-15T10:21:59;14.90;98.30
7216;DHT22;3649;48.798;9.798;2023-04-15T10:24:26;14.90;98.50
7216;DHT22;3649;48.798;9.798;2023-04-15T10:26:53;14.80;98.70
7216;DHT22;3649;48.798;9.798;2023-04-15T10:29:21;14.90;98.90
7216;DHT22;3649;48.798;9.798;2023-04-15T10:31:49;15.00;99.00
7216;DHT22;3649;48.798;9.798;2023-04-15T10:34:17;14.90;99.20
7216;DHT22;3649;48.798;9.798;2023-04-15T10:36:44;14.80;99.40
7216;DHT22;3649;48.798;9.798;2023-04-15T10:42:16;14.90;98.90
7216;DHT22;3649;48.798;9.798;2023-04-15T10:44:50;14.90;98.80
7216;DHT22;3649;48.798;9.798;2023-04-15T10:47:19;15.00;98.90
7216;DHT22;3649;48.798;9.798;2023-04-15T10:49:57;15.10;98.40
7216;DHT22;3649;48.798;9.798;2023-04-15T10:52:26;15.00;97.70
7216;DHT22;3649;48.798;9.798;2023-04-15T10:55:15;15.00;97.70
7216;DHT22;3649;48.798;9.798;2023-04-15T10:57:44;15.00;97.50
7216;DHT22;3649;48.798;9.798;2023-04-15T11:00:16;15.00;97.90
7216;DHT22;3649;48.798;9.798;2023-04-15T11:02:57;15.00;97.50
7216;DHT22;3649;48.798;9.798;2023-04-15T11:05:48;15.00;97.60
7216;DHT22;3649;48.798;9.798;2023-04-15T11:08:15;15.00;97.10
7216;DHT22;3649;48.798;9.798;2023-04-15T11:13:22;14.80;97.00
7216;DHT22;3649;48.798;9.798;2023-04-15T11:15:54;14.70;96.90
7216;DHT22;3649;48.798;9.798;2023-04-15T11:18:25;14.80;97.20
7216;DHT22;3649;48.798;9.798;2023-04-15T11:20:59;14.80;97.20
7216;DHT22;3649;48.798;9.798;2023-04-15T11:23:28;14.90;97.30
7216;DHT22;3649;48.798;9.798;2023-04-15T11:25:57;14.90;97.40
7216;DHT22;3649;48.798;9.798;2023-04-15T11:28:33;14.90;97.40
7216;DHT22;3649;48.798;9.798;2023-04-15T11:31:14;14.80;97.70
7216;DHT22;3649;48.798;9.798;2023-04-15T11:36:18;14.80;98.10
7216;DHT22;3649;48.798;9.798;2023-04-15T11:38:47;14.80;98.10
7216;DHT22;3649;48.798;9.798;2023-04-15T11:41:14;14.80;98.10
7216;DHT22;3649;48.798;9.798;2023-04-15T11:43:45;14.90;98.00
7216;DHT22;3649;48.798;9.798;2023-04-15T11:46:12;14.90;98.00
7216;DHT22;3649;48.798;9.798;2023-04-15T11:48:42;14.90;98.10
7216;DHT22;3649;48.798;9.798;2023-04-15T11:51:11;15.00;98.20
7216;DHT22;3649;48.798;9.798;2023-04-15T11:53:41;14.90;98.20
7216;DHT22;3649;48.798;9.798;2023-04-15T11:56:10;15.00;98.30
7216;DHT22;3649;48.798;9.798;2023-04-15T11:58:42;15.00;98.40
7216;DHT22;3649;48.798;9.798;2023-04-15T12:01:10;15.00;98.30
7216;DHT22;3649;48.798;9.798;2023-04-15T12:03:39;15.00;97.80
7216;DHT22;3649;48.798;9.798;2023-04-15T12:06:24;15.10;97.00
7216;DHT22;3649;48.798;9.798;2023-04-15T12:09:17;15.00;96.50
7216;DHT22;3649;48.798;9.798;2023-04-15T12:11:50;16.10;96.60
7216;DHT22;3649;48.798;9.798;2023-04-15T12:14:29;15.00;95.20
7216;DHT22;3649;48.798;9.798;2023-04-15T12:17:03;15.00;94.50
7216;DHT22;3649;48.798;9.798;2023-04-15T12:19:38;15.00;93.90
7216;DHT22;3649;48.798;9.798;2023-04-15T12:22:08;15.00;93.80
7216;DHT22;3649;48.798;9.798;2023-04-15T12:24:36;14.90;93.60
7216;DHT22;3649;48.798;9.798;2023-04-15T12:27:05;14.90;93.60
7216;DHT22;3649;48.798;9.798;2023-04-15T12:29:34;15.00;93.80
7216;DHT22;3649;48.798;9.798;2023-04-15T12:32:14;14.90;94.30
7216;DHT22;3649;48.798;9.798;2023-04-15T12:34:52;14.90;94.60
7216;DHT22;3649;48.798;9.798;2023-04-15T12:37:20;15.00;94.70
7216;DHT22;3649;48.798;9.798;2023-04-15T12:39:48;15.00;94.80
7216;DHT22;3649;48.798;9.798;2023-04-15T12:42:16;15.00;94.90
7216;DHT22;3649;48.798;9.798;2023-04-15T12:44:44;15.10;95.10
7216;DHT22;3649;48.798;9.798;2023-04-15T12:47:11;15.10;95.10
7216;DHT22;3649;48.798;9.798;2023-04-15T12:49:39;15.10;94.20
7216;DHT22;3649;48.798;9.798;2023-04-15T12:52:06;15.10;94.20
7216;DHT22;3649;48.798;9.798;2023-04-15T12:54:33;15.10;94.30
7216;DHT22;3649;48.798;9.798;2023-04-15T12:57:01;15.10;93.80
7216;DHT22;3649;48.798;9.798;2023-04-15T12:59:32;15.10;93.80
7216;DHT22;3649;48.798;9.798;2023-04-15T13:01:59;15.00;93.50
7216;DHT22;3649;48.798;9.798;2023-04-15T13:04:26;15.00;94.00
7216;DHT22;3649;48.798;9.798;2023-04-15T13:06:56;14.90;94.20
7216;DHT22;3649;48.798;9.798;2023-04-15T13:09:23;14.90;94.30
7216;DHT22;3649;48.798;9.798;2023-04-15T13:11:50;14.90;94.50
7216;DHT22;3649;48.798;9.798;2023-04-15T13:14:18;14.90;94.70
7216;DHT22;3649;48.798;9.798;2023-04-15T13:16:45;14.90;94.90
7216;DHT22;3649;48.798;9.798;2023-04-15T13:19:12;14.90;94.80
7216;DHT22;3649;48.798;9.798;2023-04-15T13:21:39;14.90;95.20
7216;DHT22;3649;48.798;9.798;2023-04-15T13:24:06;14.90;96.40
7216;DHT22;3649;48.798;9.798;2023-04-15T13:26:33;14.80;96.40
7216;DHT22;3649;48.798;9.798;2023-04-15T13:29:01;14.90;96.50
7216;DHT22;3649;48.798;9.798;2023-04-15T13:31:28;14.90;96.20
7216;DHT22;3649;48.798;9.798;2023-04-15T13:33:56;14.80;95.90
7216;DHT22;3649;48.798;9.798;2023-04-15T13:36:23;14.80;95.80
7216;DHT22;3649;48.798;9.798;2023-04-15T13:38:49;14.90;95.20
7216;DHT22;3649;48.798;9.798;2023-04-15T13:41:17;14.80;94.80
7216;DHT22;3649;48.798;9.798;2023-04-15T13:43:44;14.90;94.70
7216;DHT22;3649;48.798;9.798;2023-04-15T13:46:11;14.60;94.50
7216;DHT22;3649;48.798;9.798;2023-04-15T13:48:38;14.60;94.50
7216;DHT22;3649;48.798;9.798;2023-04-15T13:51:05;14.60;94.50
7216;DHT22;3649;48.798;9.798;2023-04-15T13:53:32;14.60;94.50
7216;DHT22;3649;48.798;9.798;2023-04-15T13:56:09;14.50;94.20
7216;DHT22;3649;48.798;9.798;2023-04-15T13:58:36;14.50;93.80
7216;DHT22;3649;48.798;9.798;2023-04-15T14:01:04;14.50;93.40
7216;DHT22;3649;48.798;9.798;2023-04-15T14:03:33;14.50;93.30
7216;DHT22;3649;48.798;9.798;2023-04-15T14:06:01;14.50;93.20
7216;DHT22;3649;48.798;9.798;2023-04-15T14:08:29;14.60;93.30
7216;DHT22;3649;48.798;9.798;2023-04-15T14:10:56;14.50;92.50
7216;DHT22;3649;48.798;9.798;2023-04-15T14:13:23;14.50;92.40
7216;DHT22;3649;48.798;9.798;2023-04-15T14:15:50;14.50;92.80
7216;DHT22;3649;48.798;9.798;2023-04-15T14:18:17;14.50;91.90
7216;DHT22;3649;48.798;9.798;2023-04-15T14:20:44;14.50;91.70
7216;DHT22;3649;48.798;9.798;2023-04-15T14:23:10;14.40;91.70
7216;DHT22;3649;48.798;9.798;2023-04-15T14:25:37;14.40;91.90
7216;DHT22;3649;48.798;9.798;2023-04-15T14:28:07;14.50;92.20
7216;DHT22;3649;48.798;9.798;2023-04-15T14:30:34;14.40;92.10
7216;DHT22;3649;48.798;9.798;2023-04-15T14:33:01;14.40;92.30
7216;DHT22;3649;48.798;9.798;2023-04-15T14:35:28;14.40;92.60
7216;DHT22;3649;48.798;9.798;2023-04-15T14:37:55;14.40;92.70
7216;DHT22;3649;48.798;9.798;2023-04-15T14:40:22;14.40;92.90
7216;DHT22;3649;48.798;9.798;2023-04-15T14:42:48;14.40;93.00
7216;DHT22;3649;48.798;9.798;2023-04-15T14:45:15;14.40;93.20
7216;DHT22;3649;48.798;9.798;2023-04-15T14:47:43;14.30;93.50
7216;DHT22;3649;48.798;9.798;2023-04-15T14:50:10;14.40;93.70
7216;DHT22;3649;48.798;9.798;2023-04-15T14:52:37;14.30;94.40
7216;DHT22;3649;48.798;9.798;2023-04-15T14:55:06;14.30;94.60
7216;DHT22;3649;48.798;9.798;2023-04-15T14:57:33;14.10;95.10
7216;DHT22;3649;48.798;9.798;2023-04-15T15:00:00;14.10;95.50
7216;DHT22;3649;48.798;9.798;2023-04-15T15:02:27;14.10;95.60
7216;DHT22;3649;48.798;9.798;2023-04-15T15:05:05;14.20;95.90
7216;DHT22;3649;48.798;9.798;2023-04-15T15:07:32;14.10;96.40
7216;DHT22;3649;48.798;9.798;2023-04-15T15:09:59;13.90;96.70
7216;DHT22;3649;48.798;9.798;2023-04-15T15:12:26;14.00;97.00
7216;DHT22;3649;48.798;9.798;2023-04-15T15:14:54;14.50;97.50
7216;DHT22;3649;48.798;9.798;2023-04-15T15:17:21;14.20;97.50
7216;DHT22;3649;48.798;9.798;2023-04-15T15:19:48;14.00;97.40
7216;DHT22;3649;48.798;9.798;2023-04-15T15:22:14;14.00;97.70
7216;DHT22;3649;48.798;9.798;2023-04-15T15:24:41;14.00;97.80
7216;DHT22;3649;48.798;9.798;2023-04-15T15:27:08;13.90;98.20
7216;DHT22;3649;48.798;9.798;2023-04-15T15:29:36;14.00;98.40
7216;DHT22;3649;48.798;9.798;2023-04-15T15:32:03;13.90;98.60
7216;DHT22;3649;48.798;9.798;2023-04-15T15:34:30;13.90;99.00
7216;DHT22;3649;48.798;9.798;2023-04-15T15:36:57;13.90;99.10
7216;DHT22;3649;48.798;9.798;2023-04-15T15:39:25;13.90;99.50
7216;DHT22;3649;48.798;9.798;2023-04-15T15:41:53;13.90;99.80
7216;DHT22;3649;48.798;9.798;2023-04-15T15:44:20;14.00;99.90
7216;DHT22;3649;48.798;9.798;2023-04-15T15:46:49;14.60;99.90
7216;DHT22;3649;48.798;9.798;2023-04-15T15:49:16;13.70;99.90
7216;DHT22;3649;48.798;9.798;2023-04-15T15:51:43;14.00;99.90
7216;DHT22;3649;48.798;9.798;2023-04-15T15:54:11;13.50;99.90
7216;DHT22;3649;48.798;9.798;2023-04-15T15:56:38;13.50;99.90
7216;DHT22;3649;48.798;9.798;2023-04-15T15:59:05;13.40;99.90
7216;DHT22;3649;48.798;9.798;2023-04-15T16:01:32;13.60;99.90
7216;DHT22;3649;48.798;9.798;2023-04-15T16:03:59;13.40;99.90
7216;DHT22;3649;48.798;9.798;2023-04-15T16:06:26;13.50;99.90
7216;DHT22;3649;48.798;9.798;2023-04-15T16:08:54;13.40;99.90
7216;DHT22;3649;48.798;9.798;2023-04-15T16:11:20;13.40;99.90
7216;DHT22;3649;48.798;9.798;2023-04-15T16:13:47;13.40;99.90
7216;DHT22;3649;48.798;9.798;2023-04-15T16:16:14;13.90;99.90
7216;DHT22;3649;48.798;9.798;2023-04-15T16:18:41;13.60;99.90
7216;DHT22;3649;48.798;9.798;2023-04-15T16:21:08;13.50;99.90
7216;DHT22;3649;48.798;9.798;2023-04-15T16:23:35;13.40;99.90